Дата Пункты Температура Давл., мм. Влажн., % Ветер Погодные явления
Воздуха Воды Направл. Скорость
20.10.17 03:00 Одесса 14.0 15.0 759 91 Ю-З 2 03 часа
19.10.17 09:00 Одесса 15.0 15.0 759 91 Ю-З 2 21 час
19.10.17 06:00 Одесса 16.0 15.0 759 79 Ю-З 3 18 часов
19.10.17 03:00 Одесса 19.0 15.0 760 74 Ю 2 15 часов
19.10.17 12:00 Одесса 18.0 15.0 760 79 Ю 3 12 часов
19.10.17 09:00 Одесса 14.0 15.0 761 97 Ю-З 2 09 часов
19.10.17 06:00 Одесса 13.0 15.0 760 100 Ю-З 1 06 часов
19.10.17 03:00 Одесса 13.0 15.0 761 96 Ю-З 1 03 часа
18.10.17 09:00 Одесса 15.0 15.0 762 94 Ю-З 2 21 час
18.10.17 06:00 Одесса 15.0 15.0 762 93 Ю 2 18 часов
18.10.17 03:00 Одесса 15.0 15.0 763 87 Ю 3 15 часов
18.10.17 12:00 Одесса 16.0 15.0 764 87 Ю-В 3 12 часов
18.10.17 09:00 Одесса 13.0 15.0 764 95 С-В 1 09 часов
18.10.17 06:00 Одесса 12.0 15.0 764 95 С 0 06 часов
18.10.17 03:00 Одесса 15.0 15.0 765 85 В 2 03 часа
17.10.17 09:00 Одесса 18.0 16.0 764 71 С-З 3 21 час
17.10.17 06:00 Одесса 19.0 16.0 763 63 С-З 1 18 часов
17.10.17 03:00 Одесса 23.0 16.0 763 53 С-З 2 15 часов
17.10.17 12:00 Одесса 21.0 15.0 764 58 С-З 2 12 часов
17.10.17 09:00 Одесса 15.0 15.0 764 73 З 3 09 часов
Количество строк
1 2 3 4 5 6 7 8 9 10
Page 1 of 284